Time;durP1;ratioP1;P1;durP2;ratioP2;P2;SDS_P1;SDS_P2;PMS_P1;PMS_P2;Temp;Humidity;BMP_temperature;BMP_pressure;BME280_temperature;BME280_humidity;BME280_pressure;Samples;Min_cycle;Max_cycle;Signal;HPM_P1;HPM_P2
2023/09/03 00:00:39;;;;;;;11.00;9.97;;;;;;;;;;6215544;23;20947;-72
2023/09/03 00:03:06;;;;;;;12.13;11.03;;;;;;;;;;6215772;23;20492;-72
2023/09/03 00:05:34;;;;;;;11.20;10.20;;;;;;;;;;6215846;23;20455;-72
2023/09/03 00:08:02;;;;;;;12.03;11.03;;;;;;;;;;6215750;23;20479;-72
2023/09/03 00:10:30;;;;;;;11.93;10.93;;;;;;;;;;6215672;23;20472;-72
2023/09/03 00:12:56;;;;;;;10.87;10.03;;;;;;;;;;6215651;23;20455;-72
2023/09/03 00:15:25;;;;;;;11.33;10.33;;;;;;;;;;6215776;23;20436;-73
2023/09/03 00:17:52;;;;;;;11.47;10.47;;;;;;;;;;6215323;23;20908;-72
2023/09/03 00:20:19;;;;;;;10.80;9.77;;;;;;;;;;6216334;23;20405;-72
2023/09/03 00:22:47;;;;;;;13.00;11.80;;;;;;;;;;6217569;23;20409;-72
2023/09/03 00:25:14;;;;;;;12.00;10.90;;;;;;;;;;6217560;23;20428;-72
2023/09/03 00:27:41;;;;;;;13.27;12.00;;;;;;;;;;6217691;23;20798;-72
2023/09/03 00:30:08;;;;;;;12.07;10.80;;;;;;;;;;6217492;23;20432;-72
2023/09/03 00:32:35;;;;;;;12.60;11.50;;;;;;;;;;6217451;23;20499;-72
2023/09/03 00:35:02;;;;;;;13.63;12.33;;;;;;;;;;6217569;23;20516;-72
2023/09/03 00:37:29;;;;;;;12.13;10.93;;;;;;;;;;6217469;23;20476;-71
2023/09/03 00:39:57;;;;;;;13.10;11.90;;;;;;;;;;6217546;23;20496;-72
2023/09/03 00:42:24;;;;;;;11.77;10.57;;;;;;;;;;6217005;23;20912;-72
2023/09/03 00:44:51;;;;;;;13.10;11.83;;;;;;;;;;6217333;23;20483;-72
2023/09/03 00:47:18;;;;;;;12.87;11.10;;;;;;;;;;6217036;23;20909;-72
2023/09/03 00:49:45;;;;;;;12.83;11.73;;;;;;;;;;6217232;23;20491;-72
2023/09/03 00:52:12;;;;;;;13.80;11.30;;;;;;;;;;6217077;23;20487;-72
2023/09/03 00:54:40;;;;;;;11.70;10.70;;;;;;;;;;6227181;23;20771;-72
2023/09/03 00:57:08;;;;;;;10.57;9.57;;;;;;;;;;6217288;23;20471;-72
2023/09/03 00:59:35;;;;;;;10.80;9.70;;;;;;;;;;6217181;23;20499;-72
2023/09/03 01:02:02;;;;;;;10.63;9.63;;;;;;;;;;6217235;23;20783;-72
2023/09/03 01:04:28;;;;;;;11.43;10.33;;;;;;;;;;6217235;23;20773;-72
2023/09/03 01:06:56;;;;;;;10.37;9.57;;;;;;;;;;6217270;23;20487;-72
2023/09/03 01:09:22;;;;;;;9.83;8.90;;;;;;;;;;6217213;23;20483;-72
2023/09/03 01:11:53;;;;;;;10.47;9.60;;;;;;;;;;6217169;23;20479;-72
2023/09/03 01:14:26;;;;;;;9.30;8.50;;;;;;;;;;6226948;23;20492;-72
2023/09/03 01:17:03;;;;;;;9.23;8.43;;;;;;;;;;6226968;23;20425;-72
2023/09/03 01:19:40;;;;;;;10.10;9.30;;;;;;;;;;6227081;23;20481;-73
2023/09/03 01:22:11;;;;;;;10.00;9.10;;;;;;;;;;6226979;23;20393;-72
2023/09/03 01:24:45;;;;;;;9.00;8.30;;;;;;;;;;6226871;23;20483;-72
2023/09/03 01:27:17;;;;;;;9.53;8.73;;;;;;;;;;6226915;23;20485;-72
2023/09/03 01:29:45;;;;;;;9.43;8.60;;;;;;;;;;6226798;23;20425;-72
2023/09/03 01:32:13;;;;;;;9.10;8.37;;;;;;;;;;6216656;23;20500;-72
2023/09/03 01:34:40;;;;;;;8.47;7.60;;;;;;;;;;6216767;23;20485;-72
2023/09/03 01:37:08;;;;;;;10.17;9.27;;;;;;;;;;6216488;23;20940;-72
2023/09/03 01:39:34;;;;;;;8.73;7.63;;;;;;;;;;6216792;23;20416;-72
2023/09/03 01:42:01;;;;;;;9.27;8.53;;;;;;;;;;6216904;23;20500;-72
2023/09/03 01:44:28;;;;;;;8.73;8.13;;;;;;;;;;6216397;23;20926;-72
2023/09/03 01:47:00;;;;;;;8.50;7.67;;;;;;;;;;6216828;23;20496;-73
2023/09/03 01:49:31;;;;;;;9.30;8.40;;;;;;;;;;6226720;23;20788;-72
2023/09/03 01:52:05;;;;;;;9.07;8.27;;;;;;;;;;6226258;23;20448;-72
2023/09/03 01:54:36;;;;;;;8.73;8.03;;;;;;;;;;6226531;23;20602;-72
2023/09/03 01:57:06;;;;;;;8.60;7.70;;;;;;;;;;6226706;23;20421;-72
2023/09/03 01:59:37;;;;;;;8.77;8.17;;;;;;;;;;6226636;23;20397;-72
2023/09/03 02:02:06;;;;;;;10.07;9.10;;;;;;;;;;6226604;23;20409;-72
2023/09/03 02:04:33;;;;;;;8.23;7.53;;;;;;;;;;6216389;23;20496;-72
2023/09/03 02:07:00;;;;;;;8.50;7.90;;;;;;;;;;6216703;23;20769;-72
2023/09/03 02:09:26;;;;;;;9.13;8.53;;;;;;;;;;6216593;23;20488;-72
2023/09/03 02:11:53;;;;;;;9.80;9.00;;;;;;;;;;6216524;23;20826;-72
2023/09/03 02:14:20;;;;;;;9.50;8.70;;;;;;;;;;6216496;23;20488;-72
2023/09/03 02:16:47;;;;;;;9.70;8.87;;;;;;;;;;6216186;23;20889;-72
2023/09/03 02:19:15;;;;;;;10.30;9.40;;;;;;;;;;6216506;23;20492;-73
2023/09/03 02:21:42;;;;;;;9.90;9.10;;;;;;;;;;6216448;23;20438;-72
2023/09/03 02:24:09;;;;;;;9.90;9.10;;;;;;;;;;6216374;23;20722;-72
2023/09/03 02:26:41;;;;;;;11.23;10.13;;;;;;;;;;6216036;23;20936;-72
2023/09/03 02:29:08;;;;;;;10.00;9.30;;;;;;;;;;6226360;23;20865;-72
2023/09/03 02:31:35;;;;;;;10.20;9.30;;;;;;;;;;6216285;23;20523;-73
2023/09/03 02:34:02;;;;;;;9.60;8.80;;;;;;;;;;6216318;23;20746;-72
2023/09/03 02:36:31;;;;;;;8.80;8.10;;;;;;;;;;6216439;23;20492;-72
2023/09/03 02:39:02;;;;;;;13.23;8.50;;;;;;;;;;6216211;23;20724;-72
2023/09/03 02:41:30;;;;;;;9.03;8.30;;;;;;;;;;6216330;23;20770;-73
2023/09/03 02:43:57;;;;;;;9.50;8.70;;;;;;;;;;6215706;23;20405;-72
2023/09/03 02:46:24;;;;;;;9.77;8.87;;;;;;;;;;6215763;23;20911;-72
2023/09/03 02:48:51;;;;;;;9.43;8.47;;;;;;;;;;6216298;23;20461;-72
2023/09/03 02:51:18;;;;;;;9.87;9.07;;;;;;;;;;6216216;23;20519;-72
2023/09/03 02:53:47;;;;;;;10.77;9.77;;;;;;;;;;6215661;23;20511;-72
2023/09/03 02:56:14;;;;;;;10.57;8.57;;;;;;;;;;6216041;23;20405;-72
2023/09/03 02:58:41;;;;;;;8.90;8.10;;;;;;;;;;6216129;23;20405;-72
2023/09/03 03:01:08;;;;;;;9.07;8.43;;;;;;;;;;6216186;23;20436;-72
2023/09/03 03:03:35;;;;;;;9.87;8.90;;;;;;;;;;6215951;23;20412;-72
2023/09/03 03:06:02;;;;;;;7.90;7.30;;;;;;;;;;6216172;23;20506;-72
2023/09/03 03:08:29;;;;;;;7.80;7.30;;;;;;;;;;6216502;23;20822;-72
2023/09/03 03:11:06;;;;;;;8.17;7.57;;;;;;;;;;6216020;23;20524;-72
2023/09/03 03:13:33;;;;;;;8.77;8.07;;;;;;;;;;6225885;23;20476;-72
2023/09/03 03:16:04;;;;;;;9.83;9.03;;;;;;;;;;6216073;23;20487;-72
2023/09/03 03:18:31;;;;;;;10.23;9.23;;;;;;;;;;6225913;23;20477;-72
2023/09/03 03:21:04;;;;;;;9.13;8.40;;;;;;;;;;6216001;23;20492;-72
2023/09/03 03:23:31;;;;;;;9.70;8.90;;;;;;;;;;6225421;23;20476;-72
2023/09/03 03:25:58;;;;;;;10.40;9.43;;;;;;;;;;6215969;23;20484;-72
2023/09/03 03:28:27;;;;;;;9.20;8.50;;;;;;;;;;6216036;23;20786;-72
2023/09/03 03:30:54;;;;;;;8.53;7.93;;;;;;;;;;6215785;23;20444;-72
2023/09/03 03:33:20;;;;;;;9.33;8.63;;;;;;;;;;6215916;23;20405;-72
2023/09/03 03:35:47;;;;;;;9.60;8.70;;;;;;;;;;6215960;23;20516;-72
2023/09/03 03:38:14;;;;;;;9.43;8.73;;;;;;;;;;6215948;23;20413;-71
2023/09/03 03:40:41;;;;;;;7.97;7.37;;;;;;;;;;6215945;23;20804;-72
2023/09/03 03:43:08;;;;;;;9.00;8.23;;;;;;;;;;6215819;23;20519;-72
2023/09/03 03:45:37;;;;;;;8.93;8.13;;;;;;;;;;6215958;23;20484;-72
2023/09/03 03:48:04;;;;;;;8.30;7.70;;;;;;;;;;6215721;23;20405;-72
2023/09/03 03:50:32;;;;;;;10.17;9.30;;;;;;;;;;6215760;23;20489;-72
2023/09/03 03:52:58;;;;;;;9.07;8.37;;;;;;;;;;6215309;23;20515;-72
2023/09/03 03:55:25;;;;;;;9.20;8.57;;;;;;;;;;6216913;23;20908;-72
2023/09/03 03:57:52;;;;;;;9.70;8.90;;;;;;;;;;6217951;23;20440;-72
2023/09/03 04:00:19;;;;;;;9.43;8.30;;;;;;;;;;6217886;23;20492;-72
2023/09/03 04:02:47;;;;;;;10.00;9.00;;;;;;;;;;6217732;23;20508;-72
2023/09/03 04:05:14;;;;;;;9.67;8.77;;;;;;;;;;6217760;23;20492;-72
2023/09/03 04:07:43;;;;;;;9.97;9.20;;;;;;;;;;6217789;23;20491;-72
2023/09/03 04:10:10;;;;;;;9.67;8.70;;;;;;;;;;6217329;23;20893;-72
2023/09/03 04:12:37;;;;;;;8.90;7.97;;;;;;;;;;6217536;23;20531;-72
2023/09/03 04:15:05;;;;;;;8.83;8.13;;;;;;;;;;6217804;23;20733;-72
2023/09/03 04:17:32;;;;;;;8.37;7.73;;;;;;;;;;6217689;23;20783;-72
2023/09/03 04:20:00;;;;;;;10.17;9.37;;;;;;;;;;6217626;23;20432;-72
2023/09/03 04:22:27;;;;;;;10.60;8.10;;;;;;;;;;6217609;23;20409;-71
2023/09/03 04:24:54;;;;;;;9.27;8.37;;;;;;;;;;6217539;23;20405;-72
2023/09/03 04:27:21;;;;;;;9.77;8.97;;;;;;;;;;6217613;23;20491;-72
2023/09/03 04:29:48;;;;;;;9.00;8.30;;;;;;;;;;6217519;23;20521;-72
2023/09/03 04:32:15;;;;;;;9.00;8.30;;;;;;;;;;6217444;23;20469;-72
2023/09/03 04:34:42;;;;;;;10.30;9.30;;;;;;;;;;6217372;23;20404;-72
2023/09/03 04:37:10;;;;;;;9.53;8.83;;;;;;;;;;6217477;23;20436;-72
2023/09/03 04:39:37;;;;;;;9.70;8.90;;;;;;;;;;6217430;23;20488;-72
2023/09/03 04:42:05;;;;;;;9.70;8.90;;;;;;;;;;6217422;23;20488;-72
2023/09/03 04:44:32;;;;;;;10.00;9.20;;;;;;;;;;6217322;23;20405;-72
2023/09/03 04:46:59;;;;;;;9.53;8.73;;;;;;;;;;6217368;23;20414;-72
2023/09/03 04:49:26;;;;;;;10.00;9.10;;;;;;;;;;6217340;23;20416;-73
2023/09/03 04:51:53;;;;;;;10.50;9.50;;;;;;;;;;6217323;23;20456;-72
2023/09/03 04:54:21;;;;;;;10.70;9.80;;;;;;;;;;6216547;23;20512;-73
2023/09/03 04:56:49;;;;;;;10.50;9.47;;;;;;;;;;6217227;23;20492;-72
2023/09/03 04:59:16;;;;;;;10.80;9.80;;;;;;;;;;6217311;23;20726;-72
2023/09/03 05:01:43;;;;;;;10.70;9.80;;;;;;;;;;6216974;23;20416;-72
2023/09/03 05:04:10;;;;;;;13.60;10.10;;;;;;;;;;6217110;23;20425;-72
2023/09/03 05:06:37;;;;;;;12.07;9.60;;;;;;;;;;6216754;23;20488;-73
2023/09/03 05:09:04;;;;;;;9.97;9.17;;;;;;;;;;6216819;23;20905;-72
2023/09/03 05:11:32;;;;;;;9.30;8.37;;;;;;;;;;6217055;23;20504;-72
2023/09/03 05:13:59;;;;;;;10.30;9.27;;;;;;;;;;6216953;23;20753;-73
2023/09/03 05:16:27;;;;;;;8.40;7.70;;;;;;;;;;6217163;23;20409;-72
2023/09/03 05:18:54;;;;;;;8.63;7.90;;;;;;;;;;6216677;23;20920;-72
2023/09/03 05:21:21;;;;;;;8.60;7.80;;;;;;;;;;6216773;23;20905;-72
2023/09/03 05:23:49;;;;;;;9.73;8.83;;;;;;;;;;6216914;23;20459;-72
2023/09/03 05:26:16;;;;;;;8.20;7.10;;;;;;;;;;6217017;23;20432;-72
2023/09/03 05:28:44;;;;;;;8.50;7.80;;;;;;;;;;6217031;23;20951;-72
2023/09/03 05:31:11;;;;;;;8.37;7.47;;;;;;;;;;6216882;23;20433;-72
2023/09/03 05:33:39;;;;;;;8.23;7.13;;;;;;;;;;6216881;23;20411;-72
2023/09/03 05:36:06;;;;;;;8.23;7.33;;;;;;;;;;6216814;23;20409;-72
2023/09/03 05:38:33;;;;;;;7.03;6.53;;;;;;;;;;6216989;23;20440;-72
2023/09/03 05:41:00;;;;;;;7.33;6.73;;;;;;;;;;6216888;23;20807;-72
2023/09/03 05:43:27;;;;;;;6.53;6.03;;;;;;;;;;6216838;23;20484;-72
2023/09/03 05:45:55;;;;;;;7.33;6.43;;;;;;;;;;6216910;23;20406;-72
2023/09/03 05:48:22;;;;;;;6.47;5.93;;;;;;;;;;6216348;23;20904;-73
2023/09/03 05:50:49;;;;;;;7.53;5.73;;;;;;;;;;6216821;23;20485;-72
2023/09/03 05:53:16;;;;;;;7.03;5.73;;;;;;;;;;6216111;23;20531;-72
2023/09/03 05:55:43;;;;;;;7.33;6.30;;;;;;;;;;6216796;23;20492;-72
2023/09/03 05:58:10;;;;;;;5.97;5.37;;;;;;;;;;6216731;23;20488;-72
2023/09/03 06:00:42;;;;;;;5.20;4.70;;;;;;;;;;6216658;23;20412;-72
2023/09/03 06:03:10;;;;;;;5.70;5.20;;;;;;;;;;6226464;23;20400;-72
2023/09/03 06:05:37;;;;;;;5.83;5.30;;;;;;;;;;6216534;23;20405;-72
2023/09/03 06:08:05;;;;;;;7.53;5.70;;;;;;;;;;6216645;23;20401;-72
2023/09/03 06:10:32;;;;;;;5.10;4.70;;;;;;;;;;6216635;23;20484;-72
2023/09/03 06:12:59;;;;;;;4.67;4.37;;;;;;;;;;6216318;23;20515;-72
2023/09/03 06:15:26;;;;;;;5.27;4.77;;;;;;;;;;6216605;23;20488;-72
2023/09/03 06:17:53;;;;;;;5.03;4.60;;;;;;;;;;6216499;23;20485;-72
2023/09/03 06:20:22;;;;;;;4.83;4.50;;;;;;;;;;6216536;23;20721;-72
2023/09/03 06:22:48;;;;;;;4.00;3.70;;;;;;;;;;6216241;23;20432;-72
2023/09/03 06:25:15;;;;;;;6.13;3.77;;;;;;;;;;6216442;23;20496;-72
2023/09/03 06:27:42;;;;;;;5.30;4.20;;;;;;;;;;6216403;23;20425;-72
2023/09/03 06:30:10;;;;;;;3.90;3.57;;;;;;;;;;6216435;23;20435;-72
2023/09/03 06:32:37;;;;;;;3.63;3.33;;;;;;;;;;6215730;23;21040;-72
2023/09/03 06:35:04;;;;;;;6.27;4.50;;;;;;;;;;6216396;23;20786;-72
2023/09/03 06:37:32;;;;;;;3.07;2.87;;;;;;;;;;6216306;23;20416;-72
2023/09/03 06:39:59;;;;;;;3.50;3.20;;;;;;;;;;6216242;23;20409;-72
2023/09/03 06:42:27;;;;;;;5.93;3.40;;;;;;;;;;6216363;23;20698;-72
2023/09/03 06:44:54;;;;;;;6.70;3.47;;;;;;;;;;6216129;23;20405;-72
2023/09/03 06:47:21;;;;;;;4.20;3.30;;;;;;;;;;6216167;23;20428;-72
2023/09/03 06:49:48;;;;;;;3.20;2.90;;;;;;;;;;6216266;23;20479;-73
2023/09/03 06:52:14;;;;;;;7.70;6.90;;;;;;;;;;6215756;23;20429;-72
2023/09/03 06:54:43;;;;;;;3.20;3.00;;;;;;;;;;6226074;23;20472;-72
2023/09/03 06:57:10;;;;;;;4.17;3.00;;;;;;;;;;6216036;23;20406;-73
2023/09/03 06:59:37;;;;;;;3.20;3.00;;;;;;;;;;6216218;23;20405;-73
2023/09/03 07:02:04;;;;;;;4.03;3.13;;;;;;;;;;6216265;23;20499;-72
2023/09/03 07:04:30;;;;;;;4.20;2.87;;;;;;;;;;6215920;23;20793;-72
2023/09/03 07:06:57;;;;;;;4.20;3.30;;;;;;;;;;6216154;23;20405;-72
2023/09/03 07:09:24;;;;;;;3.97;3.27;;;;;;;;;;6215766;23;20967;-72
2023/09/03 07:11:52;;;;;;;3.53;2.90;;;;;;;;;;6215982;23;20512;-73
2023/09/03 07:14:19;;;;;;;3.13;2.70;;;;;;;;;;6215839;23;20492;-72
2023/09/03 07:16:46;;;;;;;4.40;3.30;;;;;;;;;;6216006;23;20496;-72
2023/09/03 07:19:13;;;;;;;2.50;2.40;;;;;;;;;;6216050;23;20770;-72
2023/09/03 07:21:40;;;;;;;3.07;2.87;;;;;;;;;;6215996;23;20491;-72
2023/09/03 07:24:07;;;;;;;7.77;3.93;;;;;;;;;;6215840;23;20491;-72
2023/09/03 07:26:34;;;;;;;2.27;2.17;;;;;;;;;;6216054;23;20491;-72
2023/09/03 07:29:03;;;;;;;3.00;2.80;;;;;;;;;;6215830;23;20563;-72
2023/09/03 07:31:30;;;;;;;3.30;2.57;;;;;;;;;;6215853;23;20488;-72
2023/09/03 07:33:58;;;;;;;2.53;2.10;;;;;;;;;;6215753;23;20527;-72
2023/09/03 07:36:25;;;;;;;2.90;2.37;;;;;;;;;;6215730;23;20455;-73
2023/09/03 07:38:51;;;;;;;3.43;2.40;;;;;;;;;;6215779;23;20440;-73
2023/09/03 07:41:18;;;;;;;3.07;2.40;;;;;;;;;;6215852;23;20488;-73
2023/09/03 07:43:46;;;;;;;2.10;2.00;;;;;;;;;;6215862;23;20956;-73
2023/09/03 07:46:14;;;;;;;2.43;1.90;;;;;;;;;;6215842;23;20407;-72
2023/09/03 07:48:41;;;;;;;2.60;2.40;;;;;;;;;;6215446;23;20496;-73
2023/09/03 07:51:08;;;;;;;4.20;2.30;;;;;;;;;;6215795;23;20488;-72
2023/09/03 07:53:35;;;;;;;3.33;2.07;;;;;;;;;;6215159;23;20536;-73
2023/09/03 07:56:02;;;;;;;4.47;2.27;;;;;;;;;;6215712;23;20405;-73
2023/09/03 07:58:29;;;;;;;2.20;2.00;;;;;;;;;;6215859;23;20480;-73
2023/09/03 08:00:56;;;;;;;4.30;2.30;;;;;;;;;;6215582;23;20500;-72
2023/09/03 08:03:27;;;;;;;2.13;1.73;;;;;;;;;;6215485;23;20409;-72
2023/09/03 08:05:54;;;;;;;2.30;2.10;;;;;;;;;;6225876;23;20472;-72
2023/09/03 08:08:21;;;;;;;4.43;2.27;;;;;;;;;;6215343;23;20407;-73
2023/09/03 08:10:48;;;;;;;3.30;1.63;;;;;;;;;;6215674;23;20524;-73
2023/09/03 08:13:15;;;;;;;2.33;1.67;;;;;;;;;;6215380;23;20532;-73
2023/09/03 08:15:42;;;;;;;2.80;1.60;;;;;;;;;;6215678;23;20496;-73
2023/09/03 08:18:09;;;;;;;3.63;2.10;;;;;;;;;;6215644;23;20444;-73
2023/09/03 08:20:37;;;;;;;1.40;1.30;;;;;;;;;;6215705;23;20437;-73
2023/09/03 08:23:04;;;;;;;1.70;1.60;;;;;;;;;;6215493;23;20495;-73
2023/09/03 08:25:31;;;;;;;1.83;1.40;;;;;;;;;;6215632;23;20492;-73
2023/09/03 08:27:58;;;;;;;3.50;1.77;;;;;;;;;;6215628;23;20492;-72
2023/09/03 08:30:25;;;;;;;2.17;1.30;;;;;;;;;;6215631;23;20492;-72
2023/09/03 08:32:52;;;;;;;2.07;1.97;;;;;;;;;;6215497;23;20435;-73
2023/09/03 08:35:19;;;;;;;1.97;1.43;;;;;;;;;;6215664;23;20484;-73
2023/09/03 08:37:47;;;;;;;3.63;2.10;;;;;;;;;;6215618;23;20484;-73
2023/09/03 08:40:14;;;;;;;2.30;1.73;;;;;;;;;;6215557;23;20412;-73
2023/09/03 08:42:41;;;;;;;4.33;1.80;;;;;;;;;;6216886;23;20444;-73
2023/09/03 08:45:12;;;;;;;1.53;1.43;;;;;;;;;;6217379;23;20437;-73
2023/09/03 08:47:39;;;;;;;1.60;1.20;;;;;;;;;;6226949;23;20475;-73
2023/09/03 08:50:09;;;;;;;1.63;1.53;;;;;;;;;;6217125;23;20405;-73
2023/09/03 08:52:37;;;;;;;1.63;1.53;;;;;;;;;;6216337;23;21027;-73
2023/09/03 08:55:05;;;;;;;2.23;1.40;;;;;;;;;;6217177;23;20795;-73
2023/09/03 08:57:34;;;;;;;3.17;2.10;;;;;;;;;;6216939;23;20979;-72
2023/09/03 09:00:05;;;;;;;1.57;1.37;;;;;;;;;;6216877;23;20769;-73
2023/09/03 09:02:32;;;;;;;2.37;1.70;;;;;;;;;;6227046;23;20393;-73
2023/09/03 09:04:59;;;;;;;1.37;1.27;;;;;;;;;;6217200;23;20451;-73
2023/09/03 09:07:26;;;;;;;2.70;1.27;;;;;;;;;;6217080;23;20492;-72
2023/09/03 09:09:54;;;;;;;2.87;1.77;;;;;;;;;;6217093;23;20409;-73
2023/09/03 09:12:27;;;;;;;2.07;1.43;;;;;;;;;;6216926;23;20409;-73
2023/09/03 09:14:54;;;;;;;2.50;1.80;;;;;;;;;;6226947;23;20401;-73
2023/09/03 09:17:21;;;;;;;3.07;1.60;;;;;;;;;;6217104;23;20405;-73
2023/09/03 09:19:48;;;;;;;2.27;1.70;;;;;;;;;;6217107;23;20440;-73
2023/09/03 09:22:15;;;;;;;2.37;1.40;;;;;;;;;;6216566;23;20405;-73
2023/09/03 09:24:43;;;;;;;2.43;1.70;;;;;;;;;;6216874;23;20413;-73
2023/09/03 09:27:16;;;;;;;2.43;1.90;;;;;;;;;;6216933;23;20512;-73
2023/09/03 09:29:45;;;;;;;1.47;1.30;;;;;;;;;;6216497;23;20729;-73
2023/09/03 09:32:19;;;;;;;2.20;1.90;;;;;;;;;;6216389;23;20491;-73
2023/09/03 09:34:46;;;;;;;3.37;1.57;;;;;;;;;;6216665;23;20782;-73
2023/09/03 09:37:13;;;;;;;2.07;1.63;;;;;;;;;;6216974;23;20908;-73
2023/09/03 09:39:44;;;;;;;1.97;1.70;;;;;;;;;;6216792;23;20420;-73
2023/09/03 09:42:13;;;;;;;2.50;1.60;;;;;;;;;;6216808;23;20698;-74
2023/09/03 09:44:40;;;;;;;3.30;1.87;;;;;;;;;;6216587;23;20829;-73
2023/09/03 09:47:17;;;;;;;2.33;1.70;;;;;;;;;;6216706;23;20492;-73
2023/09/03 09:49:45;;;;;;;4.23;1.67;;;;;;;;;;6226496;23;20476;-73
2023/09/03 09:52:12;;;;;;;2.40;1.90;;;;;;;;;;6215918;23;20401;-73
2023/09/03 09:54:40;;;;;;;4.30;1.87;;;;;;;;;;6226406;23;20429;-73
2023/09/03 09:57:11;;;;;;;6.23;2.10;;;;;;;;;;6216619;23;20416;-74
2023/09/03 09:59:39;;;;;;;2.03;1.83;;;;;;;;;;6216676;23;20439;-73
2023/09/03 10:02:12;;;;;;;2.80;1.90;;;;;;;;;;6216605;23;20444;-72
2023/09/03 10:04:42;;;;;;;4.53;1.70;;;;;;;;;;6226424;23;20722;-73
2023/09/03 10:07:09;;;;;;;1.63;1.40;;;;;;;;;;6226478;23;20424;-73
2023/09/03 10:09:36;;;;;;;2.17;1.63;;;;;;;;;;6216476;23;20933;-74
2023/09/03 10:12:04;;;;;;;3.30;1.83;;;;;;;;;;6216596;23;20810;-73
2023/09/03 10:14:31;;;;;;;1.80;1.70;;;;;;;;;;6216143;23;20532;-73
2023/09/03 10:16:59;;;;;;;2.80;1.97;;;;;;;;;;6216546;23;20792;-73
2023/09/03 10:19:28;;;;;;;1.60;1.20;;;;;;;;;;6216321;23;20467;-74
2023/09/03 10:21:57;;;;;;;2.30;1.30;;;;;;;;;;6216274;23;20493;-74
2023/09/03 10:24:26;;;;;;;2.43;1.67;;;;;;;;;;6216026;23;20553;-74
2023/09/03 10:26:55;;;;;;;1.60;1.43;;;;;;;;;;6215860;23;20512;-73
2023/09/03 10:29:23;;;;;;;1.73;1.30;;;;;;;;;;6215989;23;20405;-73
2023/09/03 10:31:50;;;;;;;2.50;1.43;;;;;;;;;;6216364;23;20432;-74
2023/09/03 10:34:17;;;;;;;1.70;1.60;;;;;;;;;;6216131;23;20810;-74
2023/09/03 10:36:59;;;;;;;2.10;1.87;;;;;;;;;;6216358;23;20492;-74
2023/09/03 10:39:27;;;;;;;4.13;1.60;;;;;;;;;;6215338;23;20770;-74
2023/09/03 10:42:09;;;;;;;2.43;1.30;;;;;;;;;;6216223;23;20807;-74
2023/09/03 10:44:36;;;;;;;3.17;1.90;;;;;;;;;;6215203;23;20499;-74
2023/09/03 10:47:03;;;;;;;1.57;1.47;;;;;;;;;;6216228;23;20484;-74
2023/09/03 10:49:41;;;;;;;3.00;1.30;;;;;;;;;;6216236;23;20484;-74
2023/09/03 10:52:22;;;;;;;2.20;1.30;;;;;;;;;;6225012;23;20428;-74
2023/09/03 10:55:04;;;;;;;1.97;1.27;;;;;;;;;;6214571;23;20520;-74
2023/09/03 10:57:32;;;;;;;1.10;1.00;;;;;;;;;;6215036;23;20488;-74
2023/09/03 11:00:10;;;;;;;3.10;1.37;;;;;;;;;;6215990;23;20492;-74
2023/09/03 11:02:37;;;;;;;1.70;1.13;;;;;;;;;;6215834;23;20436;-74
2023/09/03 11:05:11;;;;;;;1.27;1.17;;;;;;;;;;6215594;23;20409;-74
2023/09/03 11:07:38;;;;;;;3.53;1.20;;;;;;;;;;6215584;23;20484;-74
2023/09/03 11:10:25;;;;;;;1.30;1.13;;;;;;;;;;6216205;23;20488;-74
2023/09/03 11:12:53;;;;;;;1.23;1.00;;;;;;;;;;6215795;23;20407;-74
2023/09/03 11:15:21;;;;;;;2.73;1.40;;;;;;;;;;6215887;23;20714;-74
2023/09/03 11:17:50;;;;;;;1.27;1.17;;;;;;;;;;6216066;23;20428;-74
2023/09/03 11:20:28;;;;;;;1.20;1.10;;;;;;;;;;6215851;23;20432;-75
2023/09/03 11:22:56;;;;;;;2.73;1.10;;;;;;;;;;6225786;23;20397;-74
2023/09/03 11:25:31;;;;;;;4.23;1.00;;;;;;;;;;6215883;23;20436;-74
2023/09/03 11:28:00;;;;;;;1.30;1.20;;;;;;;;;;6225834;23;20400;-75
2023/09/03 11:30:27;;;;;;;1.70;1.20;;;;;;;;;;6215949;23;20484;-74
2023/09/03 11:32:53;;;;;;;2.80;1.50;;;;;;;;;;6215779;23;20484;-74
2023/09/03 11:35:20;;;;;;;1.83;1.40;;;;;;;;;;6215790;23;20488;-74
2023/09/03 11:37:47;;;;;;;1.10;1.00;;;;;;;;;;6215916;23;20496;-75
2023/09/03 11:40:14;;;;;;;2.40;1.57;;;;;;;;;;6215924;23;20492;-74
2023/09/03 11:42:42;;;;;;;1.77;1.57;;;;;;;;;;6215366;23;20946;-75
2023/09/03 11:45:12;;;;;;;1.00;0.90;;;;;;;;;;6215698;23;20413;-75
2023/09/03 11:47:39;;;;;;;1.87;1.20;;;;;;;;;;6215749;23;20413;-75
2023/09/03 11:50:09;;;;;;;1.40;1.30;;;;;;;;;;6215415;23;20893;-74
2023/09/03 11:52:36;;;;;;;1.93;1.20;;;;;;;;;;6215398;23;20508;-74
2023/09/03 11:55:04;;;;;;;1.70;1.30;;;;;;;;;;6215809;23;20440;-74
2023/09/03 11:57:32;;;;;;;1.97;1.10;;;;;;;;;;6215745;23;20409;-74
2023/09/03 11:59:59;;;;;;;2.30;1.20;;;;;;;;;;6215643;23;20456;-75
2023/09/03 12:02:28;;;;;;;1.50;1.30;;;;;;;;;;6215692;23;20412;-74
2023/09/03 12:04:55;;;;;;;1.30;1.20;;;;;;;;;;6215572;23;20456;-74
2023/09/03 12:07:22;;;;;;;3.73;1.40;;;;;;;;;;6215763;23;20484;-75
2023/09/03 12:09:50;;;;;;;2.50;1.80;;;;;;;;;;6215753;23;20496;-74
2023/09/03 12:12:17;;;;;;;1.37;1.27;;;;;;;;;;6215711;23;20405;-75
2023/09/03 12:14:44;;;;;;;3.43;1.50;;;;;;;;;;6215460;23;20523;-75
2023/09/03 12:17:11;;;;;;;1.50;1.30;;;;;;;;;;6217242;23;20488;-75
2023/09/03 12:19:40;;;;;;;2.20;1.50;;;;;;;;;;6217726;23;20491;-74
2023/09/03 12:22:07;;;;;;;1.33;1.20;;;;;;;;;;6217267;23;20432;-74
2023/09/03 12:24:34;;;;;;;1.37;1.27;;;;;;;;;;6217324;23;20405;-74
2023/09/03 12:27:03;;;;;;;4.10;1.67;;;;;;;;;;6217586;23;20404;-74
2023/09/03 12:29:33;;;;;;;1.57;1.37;;;;;;;;;;6226967;23;20405;-74
2023/09/03 12:32:00;;;;;;;2.20;1.47;;;;;;;;;;6227456;23;20479;-75
2023/09/03 12:34:34;;;;;;;2.03;1.30;;;;;;;;;;6217188;23;20493;-75
2023/09/03 12:37:03;;;;;;;2.40;1.50;;;;;;;;;;6217336;23;20415;-74
2023/09/03 12:39:30;;;;;;;1.50;1.33;;;;;;;;;;6217425;23;20638;-75
2023/09/03 12:41:57;;;;;;;3.20;1.70;;;;;;;;;;6217375;23;20789;-74
2023/09/03 12:44:26;;;;;;;1.40;1.27;;;;;;;;;;6217287;23;20484;-74
2023/09/03 12:46:53;;;;;;;4.63;1.70;;;;;;;;;;6217315;23;20401;-74
2023/09/03 12:49:20;;;;;;;2.30;1.17;;;;;;;;;;6216926;23;20939;-74
2023/09/03 12:51:47;;;;;;;1.73;1.20;;;;;;;;;;6217348;23;20777;-75
2023/09/03 12:54:16;;;;;;;2.53;1.70;;;;;;;;;;6216652;23;20444;-74
2023/09/03 12:56:43;;;;;;;1.40;1.13;;;;;;;;;;6217267;23;20487;-74
2023/09/03 12:59:10;;;;;;;1.50;1.40;;;;;;;;;;6217264;23;20496;-74
2023/09/03 13:01:37;;;;;;;1.40;1.23;;;;;;;;;;6217264;23;20484;-75
2023/09/03 13:04:05;;;;;;;2.70;1.40;;;;;;;;;;6217109;23;20491;-74
2023/09/03 13:06:32;;;;;;;1.60;1.50;;;;;;;;;;6217165;23;20401;-74
2023/09/03 13:08:59;;;;;;;1.60;1.50;;;;;;;;;;6217169;23;20404;-74
2023/09/03 13:11:27;;;;;;;1.80;1.60;;;;;;;;;;6217029;23;20758;-74
2023/09/03 13:13:54;;;;;;;1.40;1.30;;;;;;;;;;6216850;23;20515;-75
2023/09/03 13:16:22;;;;;;;4.13;1.67;;;;;;;;;;6217145;23;20484;-75
2023/09/03 13:18:49;;;;;;;1.53;1.43;;;;;;;;;;6217015;23;20484;-74
2023/09/03 13:21:17;;;;;;;1.93;1.40;;;;;;;;;;6217018;23;20409;-74
2023/09/03 13:23:44;;;;;;;1.50;1.40;;;;;;;;;;6216938;23;20459;-74
2023/09/03 13:26:10;;;;;;;1.30;1.20;;;;;;;;;;6217006;23;20497;-74
2023/09/03 13:28:39;;;;;;;1.73;1.60;;;;;;;;;;6216554;23;20492;-74
2023/09/03 13:31:07;;;;;;;1.87;1.50;;;;;;;;;;6216773;23;20492;-74
2023/09/03 13:33:34;;;;;;;1.70;1.60;;;;;;;;;;6216582;23;20488;-74
2023/09/03 13:36:02;;;;;;;1.57;1.47;;;;;;;;;;6216948;23;20821;-75
2023/09/03 13:38:29;;;;;;;2.80;1.60;;;;;;;;;;6216788;23;20405;-74
2023/09/03 13:40:58;;;;;;;1.20;1.10;;;;;;;;;;6216889;23;20405;-74
2023/09/03 13:43:25;;;;;;;1.37;1.27;;;;;;;;;;6216754;23;20793;-74
2023/09/03 13:45:56;;;;;;;1.47;1.37;;;;;;;;;;6216831;23;20529;-75
2023/09/03 13:48:23;;;;;;;3.27;1.00;;;;;;;;;;6216568;23;20405;-74
2023/09/03 13:50:51;;;;;;;2.67;1.57;;;;;;;;;;6216777;23;20488;-74
2023/09/03 13:53:18;;;;;;;4.40;1.77;;;;;;;;;;6216209;23;20432;-73
2023/09/03 13:55:45;;;;;;;1.67;1.57;;;;;;;;;;6216642;23;20519;-74
2023/09/03 13:58:12;;;;;;;1.40;1.30;;;;;;;;;;6216594;23;20393;-74
2023/09/03 14:00:40;;;;;;;1.63;1.53;;;;;;;;;;6216569;23;20789;-74
2023/09/03 14:03:08;;;;;;;1.70;1.40;;;;;;;;;;6216540;23;20749;-74
2023/09/03 14:05:35;;;;;;;1.30;1.20;;;;;;;;;;6216475;23;20495;-74
2023/09/03 14:08:02;;;;;;;1.73;1.60;;;;;;;;;;6216134;23;20956;-73
2023/09/03 14:10:29;;;;;;;1.60;1.30;;;;;;;;;;6216620;23;20437;-73
2023/09/03 14:12:56;;;;;;;1.53;1.43;;;;;;;;;;6216515;23;20729;-74
2023/09/03 14:15:23;;;;;;;1.80;1.37;;;;;;;;;;6216406;23;20476;-74
2023/09/03 14:17:50;;;;;;;2.63;1.50;;;;;;;;;;6216498;23;20497;-74
2023/09/03 14:20:18;;;;;;;1.60;1.50;;;;;;;;;;6216285;23;20488;-74
2023/09/03 14:22:45;;;;;;;1.37;1.23;;;;;;;;;;6216277;23;20777;-74
2023/09/03 14:25:12;;;;;;;1.40;1.30;;;;;;;;;;6216341;23;20463;-73
2023/09/03 14:27:39;;;;;;;1.20;1.10;;;;;;;;;;6216113;23;20496;-73
2023/09/03 14:30:06;;;;;;;2.30;1.43;;;;;;;;;;6216387;23;20796;-73
2023/09/03 14:32:33;;;;;;;1.97;1.10;;;;;;;;;;6215815;23;20936;-73
2023/09/03 14:35:00;;;;;;;2.07;1.40;;;;;;;;;;6216643;23;20528;-73
2023/09/03 14:37:28;;;;;;;2.13;1.40;;;;;;;;;;6216204;23;20484;-74
2023/09/03 14:39:55;;;;;;;1.30;1.20;;;;;;;;;;6216037;23;20437;-74
2023/09/03 14:42:22;;;;;;;1.60;1.43;;;;;;;;;;6216287;23;20490;-73
2023/09/03 14:44:49;;;;;;;3.43;1.50;;;;;;;;;;6216188;23;20444;-73